createdAt,value
2023-03-20T00:02:20.487Z,60.80
2023-03-20T00:04:47.657Z,60.70
2023-03-20T00:07:14.783Z,61.40
2023-03-20T00:09:42.480Z,61.40
2023-03-20T00:12:15.753Z,60.40
2023-03-20T00:14:42.957Z,60.70
2023-03-20T00:17:20.277Z,61.20
2023-03-20T00:19:47.351Z,60.90
2023-03-20T00:22:14.263Z,60.50
2023-03-20T00:24:41.483Z,60.70
2023-03-20T00:27:13.513Z,61.40
2023-03-20T00:29:41.144Z,61.20
2023-03-20T00:32:14.732Z,61.60
2023-03-20T00:34:41.833Z,60.80
2023-03-20T00:37:11.569Z,60.70
2023-03-20T00:39:38.769Z,61.20
2023-03-20T00:42:07.728Z,61.50
2023-03-20T00:44:42.334Z,61.50
2023-03-20T00:47:18.929Z,61.20
2023-03-20T00:49:48.491Z,61.60
2023-03-20T00:52:17.835Z,61.70
2023-03-20T00:54:45.300Z,61.30
2023-03-20T00:57:18.015Z,61.30
2023-03-20T00:59:59.109Z,61.10
2023-03-20T01:02:29.890Z,61.90
2023-03-20T01:04:57.937Z,61.90
2023-03-20T01:07:26.645Z,62.60
2023-03-20T01:09:53.686Z,61.90
2023-03-20T01:12:20.678Z,62.00
2023-03-20T01:14:53.577Z,60.70
2023-03-20T01:17:22.847Z,61.70
2023-03-20T01:19:50.090Z,61.40
2023-03-20T01:22:19.835Z,61.40
2023-03-20T01:24:47.426Z,61.50
2023-03-20T01:27:17.259Z,61.60
2023-03-20T01:29:44.858Z,61.50
2023-03-20T01:32:17.460Z,61.70
2023-03-20T01:34:47.854Z,61.50
2023-03-20T01:37:26.720Z,61.20
2023-03-20T01:39:56.777Z,61.10
2023-03-20T01:42:24.938Z,61.00
2023-03-20T01:44:52.898Z,60.80
2023-03-20T01:47:23.744Z,60.80
2023-03-20T01:50:12.721Z,61.20
2023-03-20T01:52:40.369Z,61.40
2023-03-20T01:55:07.820Z,60.40
2023-03-20T01:57:37.647Z,60.50
2023-03-20T02:00:11.799Z,61.00
2023-03-20T02:02:47.168Z,60.80
2023-03-20T02:05:30.639Z,60.70
2023-03-20T02:08:25.742Z,60.70
2023-03-20T02:10:54.334Z,60.60
2023-03-20T02:13:29.000Z,60.20
2023-03-20T02:15:59.764Z,60.90
2023-03-20T02:18:58.924Z,60.60
2023-03-20T02:22:04.434Z,60.30
2023-03-20T02:24:44.915Z,60.10
2023-03-20T02:27:24.864Z,60.10
2023-03-20T02:30:07.602Z,60.00
2023-03-20T02:32:49.130Z,60.00
2023-03-20T02:35:28.213Z,60.00
2023-03-20T02:38:06.541Z,60.00
2023-03-20T02:40:45.996Z,60.00
2023-03-20T02:43:25.284Z,60.50
2023-03-20T02:46:19.600Z,59.90
2023-03-20T02:48:55.929Z,60.00
2023-03-20T02:51:32.230Z,60.00
2023-03-20T02:54:22.165Z,60.60
2023-03-20T02:57:04.790Z,60.80
2023-03-20T02:59:59.684Z,60.20
2023-03-20T03:02:47.586Z,60.10
2023-03-20T03:05:30.475Z,60.20
2023-03-20T03:08:00.666Z,60.00
2023-03-20T03:10:38.486Z,60.30
2023-03-20T03:13:11.368Z,60.50
2023-03-20T03:15:42.701Z,60.40
2023-03-20T03:18:21.455Z,60.10
2023-03-20T03:20:54.312Z,60.50
2023-03-20T03:23:31.551Z,60.40
2023-03-20T03:26:03.486Z,60.60
2023-03-20T03:28:37.286Z,60.90
2023-03-20T03:31:07.205Z,60.00
2023-03-20T03:33:38.410Z,59.80
2023-03-20T03:36:11.404Z,61.20
2023-03-20T03:38:53.045Z,60.90
2023-03-20T03:41:20.202Z,60.70
2023-03-20T03:43:56.896Z,60.50
2023-03-20T03:46:47.784Z,60.30
2023-03-20T03:49:26.427Z,60.40
2023-03-20T03:52:00.675Z,60.70
2023-03-20T03:54:34.222Z,60.50
2023-03-20T03:57:25.709Z,60.50
2023-03-20T03:59:53.642Z,60.50
2023-03-20T04:02:22.624Z,60.70
2023-03-20T04:04:53.330Z,60.50
2023-03-20T04:07:21.608Z,60.50
2023-03-20T04:09:49.260Z,60.60
2023-03-20T04:12:43.831Z,60.50
2023-03-20T04:15:12.752Z,61.20
2023-03-20T04:17:39.873Z,60.90
2023-03-20T04:20:09.104Z,60.90
2023-03-20T04:22:36.148Z,61.00
2023-03-20T04:25:21.358Z,60.90
2023-03-20T04:27:50.573Z,60.80
2023-03-20T04:30:37.737Z,60.80
2023-03-20T04:33:23.888Z,61.00
2023-03-20T04:36:12.432Z,61.10
2023-03-20T04:38:40.973Z,61.30
2023-03-20T04:41:08.674Z,61.40
2023-03-20T04:43:35.970Z,61.30
2023-03-20T04:46:03.155Z,61.20
2023-03-20T04:48:30.370Z,61.30
2023-03-20T04:50:57.528Z,61.40
2023-03-20T04:53:33.076Z,60.70
2023-03-20T04:56:01.957Z,60.60
2023-03-20T04:58:30.818Z,60.70
2023-03-20T05:00:58.054Z,60.90
2023-03-20T05:03:25.469Z,61.30
2023-03-20T05:05:52.585Z,60.70
2023-03-20T05:08:20.742Z,60.80
2023-03-20T05:10:47.693Z,61.10
2023-03-20T05:13:34.649Z,61.10
2023-03-20T05:16:16.990Z,61.20
2023-03-20T05:19:02.620Z,60.80
2023-03-20T05:21:41.593Z,60.80
2023-03-20T05:24:40.461Z,60.70
2023-03-20T05:27:24.556Z,60.70
2023-03-20T05:30:26.737Z,60.20
2023-03-20T05:32:59.777Z,61.00
2023-03-20T05:35:26.752Z,60.30
2023-03-20T05:38:08.358Z,61.10
2023-03-20T05:40:59.597Z,60.60
2023-03-20T05:43:44.920Z,60.40
2023-03-20T05:46:32.200Z,60.20
2023-03-20T05:49:26.179Z,60.50
2023-03-20T05:52:31.521Z,59.10
2023-03-20T05:55:06.498Z,60.60
2023-03-20T05:57:53.688Z,60.20
2023-03-20T06:00:39.172Z,58.60
2023-03-20T06:03:21.272Z,59.50
2023-03-20T06:06:00.389Z,59.90
2023-03-20T06:08:27.599Z,60.70
2023-03-20T06:10:55.311Z,60.90
2023-03-20T06:13:22.470Z,60.50
2023-03-20T06:15:49.929Z,61.00
2023-03-20T06:18:17.945Z,59.90
2023-03-20T06:20:45.039Z,60.00
2023-03-20T06:23:12.141Z,60.20
2023-03-20T06:25:39.336Z,59.40
2023-03-20T06:28:08.238Z,59.60
2023-03-20T06:30:35.769Z,59.50
2023-03-20T06:33:03.593Z,59.70
2023-03-20T06:35:38.567Z,60.00
2023-03-20T06:38:06.499Z,59.30
2023-03-20T06:40:33.988Z,59.70
2023-03-20T06:43:01.752Z,59.40
2023-03-20T06:45:40.063Z,60.00
2023-03-20T06:48:21.924Z,58.70
2023-03-20T06:50:50.221Z,58.50
2023-03-20T06:53:19.469Z,59.40
2023-03-20T06:56:04.839Z,59.60
2023-03-20T06:58:31.774Z,59.30
2023-03-20T07:00:58.749Z,59.20
2023-03-20T07:03:25.802Z,59.70
2023-03-20T07:05:53.997Z,58.80
2023-03-20T07:08:23.172Z,58.90
2023-03-20T07:10:50.292Z,57.80
2023-03-20T07:13:17.436Z,59.00
2023-03-20T07:16:01.229Z,58.80
2023-03-20T07:18:33.529Z,59.90
2023-03-20T07:21:05.495Z,57.80
2023-03-20T07:23:37.225Z,57.50
2023-03-20T07:26:05.594Z,58.10
2023-03-20T07:28:34.072Z,58.20
2023-03-20T07:31:25.781Z,58.00
2023-03-20T07:34:28.220Z,58.10
2023-03-20T07:36:56.558Z,58.40
2023-03-20T07:39:23.976Z,58.00
2023-03-20T07:42:01.570Z,58.40
2023-03-20T07:44:51.635Z,57.30
2023-03-20T07:47:18.669Z,58.40
2023-03-20T07:49:46.822Z,58.20
2023-03-20T07:52:14.072Z,58.60
2023-03-20T07:54:41.274Z,57.60
2023-03-20T07:57:08.262Z,57.30
2023-03-20T07:59:35.279Z,57.70
2023-03-20T08:02:02.339Z,57.30
2023-03-20T08:04:29.439Z,58.80
2023-03-20T08:06:56.696Z,56.60
2023-03-20T08:09:23.772Z,58.20
2023-03-20T08:11:51.292Z,57.20
2023-03-20T08:14:18.247Z,56.20
2023-03-20T08:16:45.406Z,57.20
2023-03-20T08:19:12.465Z,55.70
2023-03-20T08:21:40.201Z,56.00
2023-03-20T08:24:08.653Z,56.90
2023-03-20T08:26:35.692Z,57.00
2023-03-20T08:29:05.044Z,58.10
2023-03-20T08:31:32.230Z,56.70
2023-03-20T08:33:59.488Z,55.90
2023-03-20T08:36:26.592Z,56.10
2023-03-20T08:38:53.640Z,56.70
2023-03-20T08:41:20.667Z,56.30
2023-03-20T08:43:48.024Z,56.50
2023-03-20T08:46:15.041Z,57.20
2023-03-20T08:48:42.103Z,55.60
2023-03-20T08:51:09.307Z,56.80
2023-03-20T08:53:36.894Z,56.00
2023-03-20T08:56:04.103Z,56.20
2023-03-20T08:58:31.194Z,56.60
2023-03-20T09:01:01.127Z,55.90
2023-03-20T09:03:28.898Z,56.60
2023-03-20T09:05:56.098Z,57.10
2023-03-20T09:08:23.086Z,56.60
2023-03-20T09:10:52.215Z,55.90
2023-03-20T09:13:27.105Z,57.80
2023-03-20T09:15:55.667Z,55.60
2023-03-20T09:18:23.444Z,55.20
2023-03-20T09:20:50.980Z,55.70
2023-03-20T09:23:18.350Z,55.10
2023-03-20T09:25:45.663Z,55.50
2023-03-20T09:28:12.588Z,56.60
2023-03-20T09:30:39.666Z,55.40
2023-03-20T09:33:07.293Z,56.10
2023-03-20T09:35:34.380Z,56.50
2023-03-20T09:38:01.530Z,56.60
2023-03-20T09:40:49.825Z,54.80
2023-03-20T09:43:33.996Z,54.90
2023-03-20T09:46:34.045Z,56.50
2023-03-20T09:49:25.950Z,56.20
2023-03-20T09:52:10.340Z,55.90
2023-03-20T09:54:53.746Z,54.60
2023-03-20T09:57:28.411Z,56.30
2023-03-20T10:00:05.645Z,55.40
2023-03-20T10:03:06.293Z,55.60
2023-03-20T10:05:42.918Z,56.10
2023-03-20T10:08:17.202Z,56.10
2023-03-20T10:10:47.001Z,55.60
2023-03-20T10:13:32.263Z,55.00
2023-03-20T10:16:26.194Z,56.10
2023-03-20T10:19:26.254Z,54.60
2023-03-20T10:22:34.498Z,55.50
2023-03-20T10:25:26.584Z,55.50
2023-03-20T10:28:00.655Z,56.40
2023-03-20T10:30:52.403Z,54.50
2023-03-20T10:33:33.915Z,55.10
2023-03-20T10:36:13.512Z,55.90
2023-03-20T10:39:00.014Z,57.30
2023-03-20T10:41:33.290Z,53.30
2023-03-20T10:44:01.251Z,53.30
2023-03-20T10:46:33.382Z,54.40
2023-03-20T10:49:43.841Z,56.10
2023-03-20T10:52:26.524Z,55.00
2023-03-20T10:55:22.665Z,54.60
2023-03-20T10:57:57.916Z,54.90
2023-03-20T11:00:27.082Z,54.30
2023-03-20T11:02:54.723Z,54.90
2023-03-20T11:05:28.553Z,55.30
2023-03-20T11:08:05.836Z,56.20
2023-03-20T11:10:36.171Z,56.90
2023-03-20T11:13:19.535Z,56.30
2023-03-20T11:15:47.008Z,55.60
2023-03-20T11:18:16.408Z,53.80
2023-03-20T11:20:56.006Z,56.50
2023-03-20T11:23:33.574Z,56.80
2023-03-20T11:26:06.705Z,54.10
2023-03-20T11:28:39.645Z,56.20
2023-03-20T11:31:29.309Z,56.40
2023-03-20T11:34:07.973Z,54.80
2023-03-20T11:36:37.630Z,56.50
2023-03-20T11:39:33.069Z,53.30
2023-03-20T11:42:02.090Z,55.60
2023-03-20T11:44:30.434Z,53.30
2023-03-20T11:47:08.551Z,54.00
2023-03-20T11:49:49.508Z,55.00
2023-03-20T11:52:22.294Z,53.80
2023-03-20T11:54:54.508Z,54.90
2023-03-20T11:57:39.978Z,54.30
2023-03-20T12:00:19.024Z,52.90
2023-03-20T12:02:46.714Z,51.60
2023-03-20T12:05:29.604Z,51.60
2023-03-20T12:08:19.729Z,52.70
2023-03-20T12:11:14.281Z,51.60
2023-03-20T12:13:43.558Z,53.20
2023-03-20T12:16:15.467Z,52.80
2023-03-20T12:18:46.592Z,53.70
2023-03-20T12:21:50.859Z,55.30
2023-03-20T12:24:36.876Z,53.80
2023-03-20T12:27:32.345Z,53.20
2023-03-20T12:30:28.320Z,53.50
2023-03-20T12:33:04.342Z,55.00
2023-03-20T12:35:35.266Z,55.20
2023-03-20T12:38:02.837Z,54.30
2023-03-20T12:40:43.619Z,55.10
2023-03-20T12:43:17.888Z,54.90
2023-03-20T12:46:09.621Z,54.80
2023-03-20T12:48:50.173Z,52.80
2023-03-20T12:51:46.433Z,53.10
2023-03-20T12:54:38.736Z,52.50
2023-03-20T12:57:28.194Z,54.40
2023-03-20T13:00:13.715Z,54.90
2023-03-20T13:02:53.507Z,54.80
2023-03-20T13:06:05.959Z,51.60
2023-03-20T13:08:51.265Z,52.80
2023-03-20T13:11:38.885Z,53.50
2023-03-20T13:14:29.050Z,53.90
2023-03-20T13:17:24.786Z,54.70
2023-03-20T13:20:27.244Z,54.70
2023-03-20T13:23:09.629Z,53.50
2023-03-20T13:25:48.499Z,52.50
2023-03-20T13:28:30.864Z,52.00
2023-03-20T13:31:14.500Z,53.90
2023-03-20T13:34:00.852Z,53.80
2023-03-20T13:36:49.418Z,51.90
2023-03-20T13:39:32.762Z,52.10
2023-03-20T13:42:01.661Z,53.50
2023-03-20T13:44:30.470Z,54.10
2023-03-20T13:47:05.946Z,54.00
2023-03-20T13:49:54.598Z,53.30
2023-03-20T13:52:25.370Z,52.80
2023-03-20T13:54:59.217Z,54.00
2023-03-20T13:57:59.241Z,52.30
2023-03-20T14:00:51.916Z,54.30
2023-03-20T14:03:28.930Z,55.20
2023-03-20T14:05:59.112Z,54.30
2023-03-20T14:08:30.673Z,54.60
2023-03-20T14:11:24.134Z,54.00
2023-03-20T14:14:13.553Z,53.10
2023-03-20T14:16:41.516Z,52.80
2023-03-20T14:19:20.901Z,52.90
2023-03-20T14:21:50.115Z,53.90
2023-03-20T14:24:19.638Z,53.70
2023-03-20T14:27:02.740Z,55.10
2023-03-20T14:29:29.691Z,54.80
2023-03-20T14:32:06.181Z,53.20
2023-03-20T14:34:46.540Z,53.90
2023-03-20T14:37:33.004Z,54.70
2023-03-20T14:40:13.187Z,54.40
2023-03-20T14:43:01.177Z,55.10
2023-03-20T14:45:43.055Z,54.90
2023-03-20T14:48:42.778Z,54.60
2023-03-20T14:51:34.376Z,54.70
2023-03-20T14:54:27.750Z,54.40
2023-03-20T14:56:56.233Z,54.20
2023-03-20T14:59:24.699Z,53.90
2023-03-20T15:02:01.680Z,53.60
2023-03-20T15:04:31.767Z,53.30
2023-03-20T15:07:00.520Z,54.00
2023-03-20T15:09:29.877Z,54.60
2023-03-20T15:12:04.105Z,53.90
2023-03-20T15:14:43.240Z,54.50
2023-03-20T15:17:23.124Z,53.50
2023-03-20T15:19:50.774Z,54.50
2023-03-20T15:22:20.562Z,53.90
2023-03-20T15:24:56.001Z,54.90
2023-03-20T15:27:26.189Z,53.70
2023-03-20T15:29:55.519Z,53.80
2023-03-20T15:32:23.784Z,53.40
2023-03-20T15:34:51.892Z,54.30
2023-03-20T15:37:23.535Z,53.60
2023-03-20T15:39:55.467Z,54.60
2023-03-20T15:42:25.636Z,54.40
2023-03-20T15:44:55.486Z,54.90
2023-03-20T15:47:24.505Z,55.30
2023-03-20T15:49:58.320Z,55.20
2023-03-20T15:52:44.398Z,54.80
2023-03-20T15:55:18.369Z,54.30
2023-03-20T15:57:47.497Z,53.90
2023-03-20T16:00:30.248Z,54.10
2023-03-20T16:02:58.987Z,54.10
2023-03-20T16:05:28.228Z,54.00
2023-03-20T16:07:56.291Z,54.40
2023-03-20T16:10:32.542Z,54.10
2023-03-20T16:12:59.813Z,54.70
2023-03-20T16:15:31.612Z,55.50
2023-03-20T16:18:01.424Z,54.60
2023-03-20T16:20:38.064Z,54.80
2023-03-20T16:23:09.011Z,54.70
2023-03-20T16:25:37.564Z,55.10
2023-03-20T16:28:08.879Z,54.10
2023-03-20T16:30:36.487Z,54.50
2023-03-20T16:33:12.856Z,53.60
2023-03-20T16:35:47.209Z,53.20
2023-03-20T16:38:35.908Z,54.60
2023-03-20T16:41:23.843Z,53.80
2023-03-20T16:43:51.612Z,53.70
2023-03-20T16:46:24.880Z,53.80
2023-03-20T16:48:56.416Z,54.50
2023-03-20T16:51:29.272Z,55.20
2023-03-20T16:54:03.807Z,54.40
2023-03-20T16:56:37.761Z,54.30
2023-03-20T16:59:09.664Z,54.50
2023-03-20T17:01:43.223Z,55.20
2023-03-20T17:04:22.510Z,54.30
2023-03-20T17:06:54.479Z,55.20
2023-03-20T17:09:30.440Z,56.00
2023-03-20T17:12:04.958Z,55.10
2023-03-20T17:14:32.791Z,54.70
2023-03-20T17:17:00.390Z,54.50
2023-03-20T17:19:27.473Z,54.60
2023-03-20T17:21:54.690Z,54.40
2023-03-20T17:24:21.765Z,54.70
2023-03-20T17:26:55.038Z,54.80
2023-03-20T17:29:22.079Z,54.30
2023-03-20T17:31:49.122Z,54.60
2023-03-20T17:34:16.271Z,54.80
2023-03-20T17:36:43.412Z,54.90
2023-03-20T17:39:19.379Z,54.40
2023-03-20T17:41:55.973Z,54.20
2023-03-20T17:44:23.006Z,54.30
2023-03-20T17:46:58.500Z,54.00
2023-03-20T17:49:27.652Z,54.70
2023-03-20T17:51:55.397Z,54.40
2023-03-20T17:54:22.399Z,54.60
2023-03-20T17:56:49.385Z,55.50
2023-03-20T17:59:16.425Z,54.60
2023-03-20T18:01:43.468Z,54.20
2023-03-20T18:04:10.560Z,54.70
2023-03-20T18:06:38.540Z,54.00
2023-03-20T18:09:05.997Z,54.40
2023-03-20T18:11:33.030Z,54.60
2023-03-20T18:14:02.177Z,54.80
2023-03-20T18:16:29.442Z,54.30
2023-03-20T18:18:57.035Z,54.10
2023-03-20T18:21:24.137Z,55.70
2023-03-20T18:23:51.373Z,57.10
2023-03-20T18:26:22.319Z,58.40
2023-03-20T18:28:51.789Z,59.20
2023-03-20T18:31:19.820Z,59.50
2023-03-20T18:33:48.692Z,60.10
2023-03-20T18:36:18.798Z,60.80
2023-03-20T18:38:45.913Z,60.90
2023-03-20T18:41:13.358Z,60.80
2023-03-20T18:43:40.712Z,61.00
2023-03-20T18:46:16.402Z,61.10
2023-03-20T18:48:44.477Z,61.80
2023-03-20T18:51:12.170Z,62.00
2023-03-20T18:53:41.178Z,60.10
2023-03-20T18:56:20.016Z,58.80
2023-03-20T18:58:48.982Z,58.80
2023-03-20T19:01:18.133Z,57.10
2023-03-20T19:03:46.706Z,57.10
2023-03-20T19:06:22.696Z,57.00
2023-03-20T19:08:50.803Z,56.80
2023-03-20T19:11:21.196Z,56.60
2023-03-20T19:13:51.225Z,56.70
2023-03-20T19:16:38.636Z,56.60
2023-03-20T19:19:06.873Z,56.30
2023-03-20T19:21:35.289Z,56.20
2023-03-20T19:24:04.904Z,56.30
2023-03-20T19:26:33.777Z,56.20
2023-03-20T19:29:02.969Z,56.30
2023-03-20T19:31:30.038Z,56.20
2023-03-20T19:33:57.253Z,56.00
2023-03-20T19:36:32.431Z,56.20
2023-03-20T19:39:01.769Z,56.10
2023-03-20T19:41:29.695Z,56.20
2023-03-20T19:43:57.378Z,56.00
2023-03-20T19:46:39.713Z,56.10
2023-03-20T19:49:20.318Z,56.00
2023-03-20T19:51:49.126Z,56.00
2023-03-20T19:54:16.539Z,55.80
2023-03-20T19:56:43.524Z,56.00
2023-03-20T19:59:10.482Z,55.90
2023-03-20T20:01:37.939Z,55.90
2023-03-20T20:04:04.970Z,55.40
2023-03-20T20:06:33.126Z,56.00
2023-03-20T20:09:01.412Z,56.10
2023-03-20T20:11:28.700Z,55.50
2023-03-20T20:14:14.533Z,55.30
2023-03-20T20:16:43.167Z,56.50
2023-03-20T20:19:10.920Z,56.20
2023-03-20T20:22:17.234Z,55.10
2023-03-20T20:24:25.683Z,55.20
2023-03-20T20:27:11.630Z,55.50
2023-03-20T20:29:41.252Z,56.40
2023-03-20T20:32:08.206Z,55.60
2023-03-20T20:40:12.946Z,56.50
2023-03-20T20:42:40.566Z,56.00
2023-03-20T20:45:09.122Z,55.10
2023-03-20T20:47:36.171Z,55.60
2023-03-20T20:50:04.132Z,56.20
2023-03-20T20:52:35.636Z,56.00
2023-03-20T20:55:19.321Z,55.80
2023-03-20T20:57:49.306Z,55.50
2023-03-20T21:00:17.004Z,54.80
2023-03-20T21:02:44.114Z,55.30
2023-03-20T21:05:13.386Z,54.80
2023-03-20T21:07:45.356Z,55.00
2023-03-20T21:10:14.120Z,55.00
2023-03-20T21:12:57.758Z,55.10
2023-03-20T21:15:25.970Z,55.70
2023-03-20T21:18:00.595Z,55.20
2023-03-20T21:20:30.359Z,55.40
2023-03-20T21:22:57.306Z,55.60
2023-03-20T21:25:38.750Z,55.50
2023-03-20T21:28:07.405Z,56.30
2023-03-20T21:30:34.872Z,55.60
2023-03-20T21:33:03.223Z,55.30
2023-03-20T21:35:30.534Z,55.70
2023-03-20T21:38:47.408Z,55.80
2023-03-20T21:40:45.052Z,55.80
2023-03-20T21:43:12.787Z,56.40
2023-03-20T21:49:31.502Z,56.00
2023-03-20T22:02:27.241Z,56.70
2023-03-20T22:16:58.141Z,56.90
2023-03-20T22:22:37.387Z,57.60
2023-03-20T22:25:11.433Z,57.20
2023-03-20T22:27:54.348Z,56.90
2023-03-20T22:30:56.054Z,57.10
2023-03-20T22:33:49.403Z,57.00
2023-03-20T22:46:54.437Z,57.10
2023-03-20T22:49:21.553Z,57.10
2023-03-20T22:52:07.730Z,57.10
2023-03-20T22:54:36.479Z,57.80
2023-03-20T22:57:03.754Z,57.30
2023-03-20T22:59:30.795Z,57.20
2023-03-20T23:01:57.728Z,57.20
2023-03-20T23:04:24.906Z,57.10
2023-03-20T23:06:51.937Z,57.20
2023-03-20T23:09:19.184Z,57.30
2023-03-20T23:11:46.190Z,57.10
2023-03-20T23:14:22.138Z,57.20
2023-03-20T23:16:50.900Z,57.30
2023-03-20T23:19:18.035Z,57.20
2023-03-20T23:21:45.072Z,57.30
2023-03-20T23:24:12.002Z,57.20
2023-03-20T23:26:39.016Z,57.20
2023-03-20T23:29:06.446Z,57.30
2023-03-20T23:31:33.587Z,57.20
2023-03-20T23:34:01.013Z,57.20
2023-03-20T23:36:36.533Z,57.30
2023-03-20T23:39:08.961Z,57.30
2023-03-20T23:42:04.675Z,57.50
2023-03-20T23:44:23.510Z,57.50
2023-03-20T23:46:50.599Z,57.60
2023-03-20T23:49:18.559Z,57.40
2023-03-20T23:51:46.324Z,57.60
2023-03-20T23:54:13.620Z,57.60
2023-03-20T23:56:40.754Z,57.80
2023-03-20T23:59:20.507Z,57.60
